Time;durP1;ratioP1;P1;durP2;ratioP2;P2;SDS_P1;SDS_P2;PMS_P1;PMS_P2;Temp;Humidity;BMP_temperature;BMP_pressure;BME280_temperature;BME280_humidity;BME280_pressure;Samples;Min_cycle;Max_cycle;Signal;HPM_P1;HPM_P2
2021/04/29 00:00:22;;;;;;;;;;;8.70;99.90;;;;;;5082692;28;20541;-57
2021/04/29 00:02:48;;;;;;;10.95;5.88;;;8.70;99.90;;;;;;5082558;28;19924;-56
2021/04/29 00:05:18;;;;;;;;;;;8.60;99.90;;;;;;5082856;28;20503;-56
2021/04/29 00:07:43;;;;;;;8.75;5.03;;;8.60;99.90;;;;;;5082612;28;19927;-55
2021/04/29 00:10:11;;;;;;;;;;;8.70;99.90;;;;;;5099626;28;20407;-55
2021/04/29 00:12:37;;;;;;;8.07;5.30;;;8.70;99.90;;;;;;5102543;28;19916;-55
2021/04/29 00:15:04;;;;;;;;;;;8.70;99.90;;;;;;5092746;28;20838;-55
2021/04/29 00:17:30;;;;;;;8.30;6.30;;;8.70;99.90;;;;;;5089037;28;19920;-54
2021/04/29 00:19:55;;;;;;;;;;;8.70;99.90;;;;;;5087974;28;20032;-56
2021/04/29 00:22:20;;;;;;;7.70;6.15;;;8.70;99.90;;;;;;5089519;28;20002;-54
2021/04/29 00:24:46;;;;;;;;;;;8.70;99.90;;;;;;5089598;28;20036;-55
2021/04/29 00:27:12;;;;;;;7.60;5.93;;;8.70;99.90;;;;;;5088452;28;19920;-54
2021/04/29 00:29:37;;;;;;;;;;;8.70;99.90;;;;;;5089623;28;20085;-53
2021/04/29 00:32:03;;;;;;;9.35;6.40;;;8.60;99.90;;;;;;5088463;28;19972;-54
2021/04/29 00:34:29;;;;;;;;;;;8.60;99.90;;;;;;5089849;28;20408;-52
2021/04/29 00:36:54;;;;;;;10.85;6.40;;;8.60;99.90;;;;;;5088724;28;20497;-54
2021/04/29 00:39:20;;;;;;;;;;;8.60;99.90;;;;;;5089815;28;20071;-53
2021/04/29 00:41:46;;;;;;;8.55;5.57;;;8.60;99.90;;;;;;5089460;28;19923;-57
2021/04/29 00:44:12;;;;;;;13.02;7.07;;;8.70;99.90;;;;;;5087590;28;20448;-57
2021/04/29 00:46:37;;;;;;;;;;;8.70;99.90;;;;;;5088044;28;20480;-54
2021/04/29 00:49:03;;;;;;;10.30;7.05;;;8.70;99.90;;;;;;5088676;28;19922;-56
2021/04/29 00:51:28;;;;;;;;;;;8.70;99.90;;;;;;5088312;28;20040;-55
2021/04/29 00:53:54;;;;;;;8.10;5.97;;;8.70;99.90;;;;;;5088401;28;19916;-57
2021/04/29 00:56:21;;;;;;;;;;;8.60;99.90;;;;;;5087407;28;20865;-58
2021/04/29 00:58:49;;;;;;;8.57;6.63;;;8.70;99.90;;;;;;5088157;28;19935;-57
2021/04/29 01:01:15;;;;;;;11.45;7.90;;;8.70;99.90;;;;;;5087543;28;20100;-56
2021/04/29 01:03:50;;;;;;;11.35;8.27;;;8.70;99.90;;;;;;5088346;28;20086;-57
2021/04/29 01:06:20;;;;;;;11.80;8.68;;;8.60;99.90;;;;;;5088004;28;20472;-56
2021/04/29 01:09:06;;;;;;;10.93;8.23;;;8.60;99.90;;;;;;5088323;28;20032;-58
2021/04/29 01:11:33;;;;;;;9.77;7.90;;;8.80;99.90;;;;;;5088075;28;20074;-55
2021/04/29 01:14:03;;;;;;;12.00;8.57;;;8.80;99.90;;;;;;5087385;28;20044;-55
2021/04/29 01:16:30;;;;;;;10.63;7.85;;;8.80;99.90;;;;;;5086437;28;20048;-58
2021/04/29 01:18:58;;;;;;;10.10;7.78;;;8.70;99.90;;;;;;5088420;28;20403;-57
2021/04/29 01:21:28;;;;;;;10.70;7.85;;;8.70;99.90;;;;;;5087348;28;20068;-58
2021/04/29 01:24:16;;;;;;;11.90;8.85;;;8.80;99.90;;;;;;5086912;28;20052;-58
2021/04/29 01:26:48;;;;;;;15.43;9.30;;;8.90;99.90;;;;;;5086826;28;20043;-57
2021/04/29 01:29:17;;;;;;;15.25;9.48;;;8.80;99.90;;;;;;5085275;28;20485;-56
2021/04/29 01:31:45;;;;;;;13.45;9.13;;;8.90;99.90;;;;;;5087965;28;20082;-58
2021/04/29 01:34:13;;;;;;;11.63;8.80;;;8.90;99.90;;;;;;5087632;28;20679;-58
2021/04/29 01:36:40;;;;;;;13.30;9.68;;;8.90;99.90;;;;;;5087726;28;20044;-57
2021/04/29 01:39:09;;;;;;;12.95;9.43;;;8.80;99.90;;;;;;5087952;28;20075;-53
2021/04/29 01:41:38;;;;;;;11.98;8.68;;;8.90;99.90;;;;;;5086197;28;20050;-55
2021/04/29 01:44:06;;;;;;;11.02;8.20;;;8.90;99.90;;;;;;5086825;28;20044;-53
2021/04/29 01:46:32;;;;;;;11.57;8.07;;;8.90;99.90;;;;;;5085633;28;20040;-55
2021/04/29 01:48:58;;;;;;;13.77;8.98;;;8.90;99.90;;;;;;5087920;28;20093;-55
2021/04/29 01:51:24;;;;;;;;;;;8.90;99.90;;;;;;5087779;28;20036;-55
2021/04/29 01:53:50;;;;;;;13.20;8.95;;;8.90;99.90;;;;;;5086890;28;19994;-51
2021/04/29 01:56:16;;;;;;;13.02;9.40;;;8.80;99.90;;;;;;5087643;28;20051;-55
2021/04/29 01:58:41;;;;;;;;;;;8.80;99.90;;;;;;5088044;28;20398;-58
2021/04/29 02:01:07;;;;;;;12.32;8.20;;;8.80;99.90;;;;;;5085709;28;20003;-58
2021/04/29 02:03:33;;;;;;;;;;;8.80;99.90;;;;;;5084952;28;20558;-59
2021/04/29 02:05:58;;;;;;;10.38;8.23;;;8.80;99.90;;;;;;5087748;28;20003;-58
2021/04/29 02:08:24;;;;;;;;;;;8.80;99.90;;;;;;5088443;28;20507;-59
2021/04/29 02:10:53;;;;;;;13.50;8.45;;;8.80;99.90;;;;;;5088055;28;20375;-58
2021/04/29 02:13:20;;;;;;;13.60;8.85;;;8.80;99.90;;;;;;5087256;28;20122;-58
2021/04/29 02:16:00;;;;;;;11.60;8.88;;;8.80;99.90;;;;;;5085209;28;20410;-59
2021/04/29 02:18:28;;;;;;;11.10;8.45;;;8.70;99.90;;;;;;5086300;28;20043;-58
2021/04/29 02:20:56;;;;;;;12.23;9.15;;;8.80;99.90;;;;;;5087123;28;20392;-59
2021/04/29 02:23:24;;;;;;;11.18;8.32;;;8.70;99.90;;;;;;5086434;28;20044;-56
2021/04/29 02:25:53;;;;;;;13.10;9.48;;;8.70;99.90;;;;;;5086770;28;20047;-60
2021/04/29 02:28:19;;;;;;;10.13;7.45;;;8.70;99.90;;;;;;5085036;28;20075;-59
2021/04/29 02:30:47;;;;;;;11.82;8.65;;;8.70;99.90;;;;;;5085582;28;20043;-57
2021/04/29 02:33:13;;;;;;;10.55;8.40;;;8.70;99.90;;;;;;5086877;28;20048;-60
2021/04/29 02:35:38;;;;;;;11.40;8.63;;;8.70;99.90;;;;;;5086055;28;20040;-57
2021/04/29 02:38:04;;;;;;;;;;;8.70;99.90;;;;;;5086749;28;20040;-61
2021/04/29 02:40:31;;;;;;;10.63;8.27;;;8.60;99.90;;;;;;5086338;28;19916;-60
2021/04/29 02:42:57;;;;;;;13.80;9.40;;;8.60;99.90;;;;;;5086220;28;20048;-58
2021/04/29 02:45:22;;;;;;;;;;;8.60;99.90;;;;;;5077182;28;20189;-59
2021/04/29 02:47:50;;;;;;;9.52;7.60;;;8.50;99.90;;;;;;5084082;28;19915;-55
2021/04/29 02:50:21;;;;;;;16.17;9.73;;;8.60;99.90;;;;;;5086939;28;20039;-58
2021/04/29 02:52:51;;;;;;;14.23;10.07;;;8.50;99.90;;;;;;5086158;28;20079;-56
2021/04/29 02:55:17;;;;;;;13.30;10.65;;;8.30;99.90;;;;;;5086560;28;20055;-53
2021/04/29 02:57:42;;;;;;;;;;;8.30;99.90;;;;;;5086305;28;20051;-60
2021/04/29 03:00:11;;;;;;;13.32;9.75;;;8.30;99.90;;;;;;5086262;28;19998;-58
2021/04/29 03:02:39;;;;;;;12.40;9.88;;;8.30;99.90;;;;;;5085994;28;20051;-59
2021/04/29 03:05:09;;;;;;;16.02;10.40;;;8.40;99.90;;;;;;5086614;28;20079;-55
2021/04/29 03:07:34;;;;;;;13.73;9.55;;;8.30;99.90;;;;;;5086202;28;20039;-55
2021/04/29 03:10:00;;;;;;;;;;;8.30;99.90;;;;;;5086591;28;20724;-55
2021/04/29 03:12:26;;;;;;;16.75;9.98;;;8.30;99.90;;;;;;5085998;28;19920;-55
2021/04/29 03:14:52;;;;;;;12.95;8.85;;;8.30;99.90;;;;;;5085375;28;20048;-55
2021/04/29 03:17:17;;;;;;;;;;;8.40;99.90;;;;;;5085778;28;20495;-56
2021/04/29 03:19:43;;;;;;;14.77;10.20;;;8.30;99.90;;;;;;5086852;28;19916;-52
2021/04/29 03:22:08;;;;;;;;;;;8.30;99.90;;;;;;5086860;28;20044;-56
2021/04/29 03:24:34;;;;;;;16.50;10.05;;;8.30;99.90;;;;;;5079700;28;20486;-52
2021/04/29 03:26:59;;;;;;;;;;;8.30;99.90;;;;;;5086281;28;20039;-50
2021/04/29 03:29:25;;;;;;;17.15;10.75;;;8.20;99.90;;;;;;5085621;28;19977;-53
2021/04/29 03:31:50;;;;;;;;;;;8.20;99.90;;;;;;5086270;28;20048;-56
2021/04/29 03:34:16;;;;;;;18.55;10.18;;;8.20;99.90;;;;;;5085446;28;20027;-58
2021/04/29 03:36:41;;;;;;;;;;;8.20;99.90;;;;;;5086737;28;20442;-55
2021/04/29 03:39:07;;;;;;;13.65;9.38;;;8.20;99.90;;;;;;5086221;28;20367;-56
2021/04/29 03:41:32;;;;;;;;;;;8.10;99.90;;;;;;5085760;28;20054;-54
2021/04/29 03:43:58;;;;;;;16.23;10.57;;;8.20;99.90;;;;;;5085791;28;19924;-56
2021/04/29 03:46:24;;;;;;;;;;;8.10;99.90;;;;;;5085171;28;20289;-56
2021/04/29 03:48:49;;;;;;;17.17;9.60;;;8.10;99.90;;;;;;5086028;28;19964;-56
2021/04/29 03:51:15;;;;;;;;;;;8.20;99.90;;;;;;5089921;28;20097;-59
2021/04/29 03:53:40;;;;;;;16.58;9.75;;;8.10;99.90;;;;;;5089193;28;19985;-58
2021/04/29 03:56:06;;;;;;;;;;;8.10;99.90;;;;;;5086966;28;20168;-58
2021/04/29 03:58:31;;;;;;;20.33;9.45;;;8.10;99.90;;;;;;5079603;28;20566;-57
2021/04/29 04:00:57;;;;;;;;;;;8.10;99.90;;;;;;5083872;28;20410;-52
2021/04/29 04:03:22;;;;;;;14.27;9.60;;;8.10;99.90;;;;;;5089294;28;20404;-58
2021/04/29 04:05:48;;;;;;;;;;;8.00;99.90;;;;;;5087778;28;20064;-56
2021/04/29 04:08:13;;;;;;;18.13;9.57;;;8.00;99.90;;;;;;5082881;28;19920;-58
2021/04/29 04:10:39;;;;;;;;;;;8.00;99.90;;;;;;5089636;28;20036;-57
2021/04/29 04:13:04;;;;;;;13.30;8.85;;;8.00;99.90;;;;;;5085869;28;19991;-56
2021/04/29 04:15:30;;;;;;;;;;;8.00;99.90;;;;;;5083382;28;20036;-58
2021/04/29 04:17:56;;;;;;;15.32;9.15;;;8.10;99.90;;;;;;5088779;28;19972;-56
2021/04/29 04:20:22;;;;;;;;;;;8.10;99.90;;;;;;5089316;28;20040;-54
2021/04/29 04:22:48;;;;;;;12.82;8.82;;;8.10;99.90;;;;;;5088905;28;19932;-58
2021/04/29 04:25:14;;;;;;;11.23;8.70;;;8.20;99.90;;;;;;5086836;28;20051;-57
2021/04/29 04:27:39;;;;;;;;;;;8.20;99.90;;;;;;5088984;28;20040;-54
2021/04/29 04:30:06;;;;;;;12.65;8.00;;;8.20;99.90;;;;;;5089048;28;19923;-56
2021/04/29 04:32:32;;;;;;;16.45;7.65;;;8.20;99.90;;;;;;5087900;28;20035;-56
2021/04/29 04:34:59;;;;;;;;;;;8.20;99.90;;;;;;5089018;28;20063;-55
2021/04/29 04:37:24;;;;;;;14.90;8.32;;;8.20;99.90;;;;;;5088999;28;20405;-55
2021/04/29 04:39:50;;;;;;;;;;;8.30;99.90;;;;;;5088883;28;20571;-55
2021/04/29 04:42:15;;;;;;;11.70;7.40;;;8.20;99.90;;;;;;5087953;28;19916;-53
2021/04/29 04:44:41;;;;;;;;;;;8.30;99.90;;;;;;5087087;28;20128;-60
2021/04/29 04:47:06;;;;;;;13.35;7.57;;;8.30;99.90;;;;;;5088154;28;19912;-53
2021/04/29 04:49:32;;;;;;;;;;;8.30;99.90;;;;;;5087657;28;20085;-55
2021/04/29 04:51:57;;;;;;;13.27;7.32;;;8.40;99.90;;;;;;5088218;28;20047;-54
2021/04/29 04:54:23;;;;;;;;;;;8.40;99.90;;;;;;5088724;28;20484;-58
2021/04/29 04:56:49;;;;;;;13.20;7.28;;;8.40;99.90;;;;;;5088685;28;19942;-58
2021/04/29 04:59:14;;;;;;;;;;;8.40;99.90;;;;;;5088606;28;20403;-58
2021/04/29 05:01:40;;;;;;;16.05;7.38;;;8.40;99.90;;;;;;5088235;28;19965;-59
2021/04/29 05:04:06;;;;;;;;;;;8.50;99.90;;;;;;5088346;28;20523;-58
2021/04/29 05:06:34;;;;;;;11.80;7.13;;;8.50;99.90;;;;;;5088414;28;19916;-57
2021/04/29 05:09:00;;;;;;;15.52;7.55;;;8.60;99.90;;;;;;5088146;28;20044;-58
2021/04/29 05:11:25;;;;;;;;;;;8.60;99.90;;;;;;5089349;28;20032;-56
2021/04/29 05:13:50;;;;;;;11.57;6.97;;;8.60;99.90;;;;;;5087363;28;19960;-55
2021/04/29 05:16:16;;;;;;;;;;;8.60;99.90;;;;;;5086248;28;20043;-56
2021/04/29 05:18:42;;;;;;;13.98;7.35;;;8.60;99.90;;;;;;5088546;28;19951;-51
2021/04/29 05:21:07;;;;;;;;;;;8.70;99.90;;;;;;5088343;28;20036;-54
2021/04/29 05:23:33;;;;;;;11.52;7.68;;;8.70;99.90;;;;;;5087941;28;19924;-59
2021/04/29 05:25:58;;;;;;;;;;;8.70;99.90;;;;;;5087861;28;20400;-58
2021/04/29 05:28:24;;;;;;;11.95;6.95;;;8.80;99.90;;;;;;5088068;28;19947;-55
2021/04/29 05:30:49;;;;;;;;;;;8.90;99.90;;;;;;5085765;28;21478;-57
2021/04/29 05:33:15;;;;;;;12.20;6.75;;;9.00;99.90;;;;;;5086069;28;20010;-55
2021/04/29 05:35:40;;;;;;;;;;;9.10;99.90;;;;;;5088443;28;20036;-56
2021/04/29 05:38:06;;;;;;;11.77;6.88;;;9.10;99.90;;;;;;5087451;28;19916;-54
2021/04/29 05:40:31;;;;;;;;;;;9.10;99.90;;;;;;5088218;28;20036;-55
2021/04/29 05:42:57;;;;;;;9.18;6.40;;;9.10;99.90;;;;;;5086207;28;19919;-54
2021/04/29 05:45:22;;;;;;;;;;;9.20;99.90;;;;;;5086631;28;20094;-59
2021/04/29 05:47:48;;;;;;;9.88;7.00;;;9.30;99.90;;;;;;5087604;28;19924;-57
2021/04/29 05:50:13;;;;;;;;;;;9.40;99.90;;;;;;5087855;28;20070;-56
2021/04/29 05:52:39;;;;;;;21.20;10.10;;;9.40;99.90;;;;;;5088394;28;20240;-56
2021/04/29 05:55:06;;;;;;;;;;;9.40;99.90;;;;;;5082769;28;20114;-57
2021/04/29 05:57:31;;;;;;;11.97;7.50;;;9.40;99.90;;;;;;5076279;28;19923;-59
2021/04/29 05:59:57;;;;;;;;;;;9.40;99.90;;;;;;5086470;28;20262;-58
2021/04/29 06:02:22;;;;;;;15.18;8.57;;;9.30;99.90;;;;;;5086117;28;20437;-56
2021/04/29 06:04:48;;;;;;;;;;;9.30;99.90;;;;;;5086877;28;20038;-55
2021/04/29 06:07:14;;;;;;;19.35;9.38;;;9.30;99.90;;;;;;5077305;28;20518;-60
2021/04/29 06:09:40;;;;;;;;;;;9.20;99.90;;;;;;5067057;28;20044;-56
2021/04/29 06:12:06;;;;;;;14.23;8.18;;;9.30;99.90;;;;;;5065698;28;19920;-54
2021/04/29 06:14:32;;;;;;;12.13;8.10;;;9.30;99.90;;;;;;5065386;28;20100;-52
2021/04/29 06:16:57;;;;;;;;;;;9.20;99.90;;;;;;5085949;28;20131;-57
2021/04/29 06:19:23;;;;;;;14.43;9.65;;;9.20;99.90;;;;;;5086141;28;19946;-57
2021/04/29 06:21:49;;;;;;;;;;;9.20;99.90;;;;;;5079158;28;20114;-55
2021/04/29 06:24:14;;;;;;;15.65;9.32;;;9.20;99.90;;;;;;5074322;28;20626;-58
2021/04/29 06:26:41;;;;;;;;;;;9.20;99.90;;;;;;5076512;28;20064;-53
2021/04/29 06:29:07;;;;;;;13.47;9.10;;;9.20;99.90;;;;;;5073203;28;20350;-58
2021/04/29 06:31:35;;;;;;;20.30;9.30;;;9.20;99.90;;;;;;5075913;28;20056;-56
2021/04/29 06:34:02;;;;;;;17.00;9.63;;;9.30;99.90;;;;;;5074692;28;20071;-54
2021/04/29 06:36:28;;;;;;;17.27;10.50;;;9.30;99.90;;;;;;5071271;28;20043;-57
2021/04/29 06:38:53;;;;;;;;;;;9.30;99.90;;;;;;5079069;28;20093;-58
2021/04/29 06:41:19;;;;;;;18.60;10.55;;;9.30;99.90;;;;;;5072414;28;19997;-58
2021/04/29 06:43:44;;;;;;;;;;;9.40;99.90;;;;;;5066350;28;20595;-59
2021/04/29 06:46:11;;;;;;;27.38;14.68;;;9.50;99.90;;;;;;5078025;28;19998;-57
2021/04/29 06:48:37;;;;;;;19.67;11.52;;;9.50;99.90;;;;;;5086117;28;20048;-55
2021/04/29 06:51:03;;;;;;;17.92;11.52;;;9.50;99.90;;;;;;5086144;28;20124;-56
2021/04/29 06:53:29;;;;;;;23.23;15.57;;;9.60;99.90;;;;;;5086556;28;20047;-55
2021/04/29 06:55:54;;;;;;;;;;;9.70;99.90;;;;;;5084621;28;20400;-57
2021/04/29 06:58:20;;;;;;;19.38;11.18;;;9.80;99.90;;;;;;5066148;28;19917;-52
2021/04/29 07:00:46;;;;;;;;;;;9.80;99.90;;;;;;5065272;28;20043;-55
2021/04/29 07:03:11;;;;;;;19.00;10.98;;;9.90;99.90;;;;;;5064700;28;19920;-55
2021/04/29 07:05:37;;;;;;;;;;;9.90;99.90;;;;;;5070745;28;20070;-56
2021/04/29 07:08:02;;;;;;;20.05;12.00;;;9.90;99.90;;;;;;5081488;28;20279;-57
2021/04/29 07:10:28;;;;;;;;;;;9.90;99.90;;;;;;5085087;28;20104;-54
2021/04/29 07:12:53;;;;;;;21.55;13.18;;;9.90;99.90;;;;;;5085756;28;20295;-54
2021/04/29 07:15:19;;;;;;;;;;;9.90;99.90;;;;;;5071375;28;20084;-56
2021/04/29 07:17:47;;;;;;;24.50;14.65;;;10.00;99.90;;;;;;5084249;28;19984;-54
2021/04/29 07:20:13;;;;;;;25.48;15.50;;;10.10;99.90;;;;;;5084320;28;20044;-57
2021/04/29 07:22:38;;;;;;;;;;;10.30;99.90;;;;;;5087719;28;20032;-58
2021/04/29 07:25:07;;;;;;;21.73;14.57;;;10.50;99.90;;;;;;5095051;28;19943;-52
2021/04/29 07:27:33;;;;;;;20.88;13.70;;;10.80;99.90;;;;;;5089505;28;20525;-57
2021/04/29 07:29:59;;;;;;;19.80;12.77;;;11.00;99.90;;;;;;5089349;28;20100;-53
2021/04/29 07:32:24;;;;;;;;;;;11.20;99.90;;;;;;5085556;28;20643;-54
2021/04/29 07:34:50;;;;;;;20.83;11.77;;;11.30;99.90;;;;;;5088150;28;19916;-54
2021/04/29 07:37:15;;;;;;;;;;;11.20;99.90;;;;;;5089119;28;20824;-55
2021/04/29 07:39:41;;;;;;;18.02;11.05;;;11.10;99.90;;;;;;5089096;28;19920;-55
2021/04/29 07:42:07;;;;;;;;;;;11.70;99.90;;;;;;5089503;28;20070;-55
2021/04/29 07:44:32;;;;;;;20.65;12.05;;;12.30;98.30;;;;;;5089335;28;20295;-55
2021/04/29 07:46:59;;;;;;;;;;;12.00;98.70;;;;;;5089502;28;20063;-50
2021/04/29 07:49:25;;;;;;;17.05;11.23;;;12.10;98.90;;;;;;5086291;28;19916;-55
2021/04/29 07:51:51;;;;;;;;;;;12.30;99.10;;;;;;5089806;28;20048;-53
2021/04/29 07:54:16;;;;;;;17.55;10.90;;;13.00;96.70;;;;;;5089806;28;20008;-55
2021/04/29 07:56:42;;;;;;;;;;;12.90;96.70;;;;;;5082095;28;20500;-56
2021/04/29 07:59:08;;;;;;;19.52;10.52;;;13.10;95.40;;;;;;5071379;28;19995;-57
2021/04/29 08:01:34;;;;;;;;;;;13.50;95.80;;;;;;5109270;28;20169;-56
2021/04/29 08:04:01;;;;;;;14.43;8.90;;;13.70;94.00;;;;;;5108009;28;19923;-55
2021/04/29 08:06:28;;;;;;;14.90;9.20;;;13.60;94.20;;;;;;5109065;28;20148;-56
2021/04/29 08:08:55;;;;;;;17.63;10.18;;;13.20;94.00;;;;;;5109003;28;20510;-56
2021/04/29 08:11:21;;;;;;;14.20;9.52;;;12.90;94.70;;;;;;5108785;28;20046;-56
2021/04/29 08:13:46;;;;;;;16.98;9.40;;;13.90;93.30;;;;;;5109464;28;20511;-58
2021/04/29 08:16:12;;;;;;;;;;;15.30;91.70;;;;;;5092462;28;20085;-57
2021/04/29 08:18:37;;;;;;;15.05;9.38;;;15.30;87.00;;;;;;5089210;28;19927;-57
2021/04/29 08:21:04;;;;;;;;;;;14.80;86.80;;;;;;5088526;28;20032;-55
2021/04/29 08:23:30;;;;;;;17.65;10.10;;;14.60;90.50;;;;;;5081848;28;20821;-56
2021/04/29 08:25:56;;;;;;;;;;;14.20;90.80;;;;;;5087892;28;20106;-55
2021/04/29 08:28:22;;;;;;;15.02;10.43;;;13.80;90.20;;;;;;5087081;28;20018;-58
2021/04/29 08:30:48;;;;;;;;;;;13.50;90.70;;;;;;5088276;28;20047;-54
2021/04/29 08:33:13;;;;;;;21.65;11.95;;;13.00;90.90;;;;;;5089010;28;20584;-55
2021/04/29 08:35:39;;;;;;;;;;;12.80;92.40;;;;;;5089075;28;20051;-54
2021/04/29 08:38:04;;;;;;;18.90;10.82;;;13.60;90.00;;;;;;5088363;28;19919;-54
2021/04/29 08:40:30;;;;;;;;;;;14.30;89.10;;;;;;5088726;28;20032;-53
2021/04/29 08:42:56;;;;;;;18.13;11.00;;;14.10;88.00;;;;;;5082933;28;19920;-54
2021/04/29 08:45:23;;;;;;;12.80;9.23;;;13.70;88.50;;;;;;5078855;28;20056;-55
2021/04/29 08:47:54;;;;;;;15.07;10.38;;;12.90;88.80;;;;;;5085070;28;20067;-56
2021/04/29 08:50:21;;;;;;;22.92;10.85;;;12.60;91.60;;;;;;5087967;28;20032;-55
2021/04/29 08:52:47;;;;;;;14.95;10.20;;;12.70;91.10;;;;;;5083746;28;20431;-53
2021/04/29 08:55:20;;;;;;;;;;;13.00;90.20;;;;;;5087818;28;20044;-54
2021/04/29 08:57:46;;;;;;;22.48;12.48;;;13.40;90.70;;;;;;5087959;28;19966;-54
2021/04/29 09:00:12;;;;;;;;;;;13.70;90.40;;;;;;5097674;28;20594;-56
2021/04/29 09:02:39;;;;;;;16.20;9.20;;;13.60;90.50;;;;;;5108403;28;19922;-54
2021/04/29 09:05:17;;;;;;;15.43;10.15;;;13.40;90.30;;;;;;5108385;28;20043;-50
2021/04/29 09:07:56;;;;;;;16.92;10.57;;;13.40;88.80;;;;;;5108049;28;20043;-53
2021/04/29 09:10:44;;;;;;;19.25;10.93;;;13.00;88.10;;;;;;5108117;28;20043;-58
2021/04/29 09:13:18;;;;;;;21.55;10.93;;;12.40;88.40;;;;;;5107246;28;20036;-58
2021/04/29 09:15:45;;;;;;;18.17;11.38;;;12.10;91.00;;;;;;5095214;28;20047;-62
2021/04/29 09:18:16;;;;;;;17.83;10.95;;;11.80;91.30;;;;;;5087123;28;20040;-56
2021/04/29 09:20:53;;;;;;;17.98;10.38;;;11.90;92.30;;;;;;5086699;28;20044;-56
2021/04/29 09:23:27;;;;;;;18.95;10.63;;;12.00;92.30;;;;;;5087156;28;20044;-59
2021/04/29 09:25:58;;;;;;;23.23;14.82;;;12.20;93.20;;;;;;5086137;28;20491;-56
2021/04/29 09:28:46;;;;;;;19.60;11.73;;;12.70;92.60;;;;;;5087093;28;20050;-56
2021/04/29 09:31:17;;;;;;;22.08;11.50;;;13.10;91.50;;;;;;5086573;28;20604;-53
2021/04/29 09:33:51;;;;;;;18.52;11.93;;;12.80;90.30;;;;;;5087315;28;20178;-53
2021/04/29 09:36:27;;;;;;;22.85;11.10;;;12.50;89.40;;;;;;5087292;28;20044;-57
2021/04/29 09:38:58;;;;;;;16.48;10.95;;;12.30;89.40;;;;;;5086977;28;20042;-55
2021/04/29 09:41:29;;;;;;;19.33;11.38;;;12.00;90.00;;;;;;5086793;28;20112;-55
2021/04/29 09:43:57;;;;;;;35.50;11.32;;;12.40;90.10;;;;;;5086104;28;20044;-53
2021/04/29 09:46:23;;;;;;;17.45;10.23;;;12.50;89.00;;;;;;5084171;28;20058;-53
2021/04/29 09:48:50;;;;;;;16.02;10.27;;;12.40;87.00;;;;;;5086357;28;20097;-58
2021/04/29 09:51:20;;;;;;;18.25;10.13;;;12.40;89.80;;;;;;5086123;28;20074;-58
2021/04/29 09:53:50;;;;;;;18.95;10.38;;;12.30;85.30;;;;;;5087017;28;20226;-54
2021/04/29 09:56:17;;;;;;;20.45;10.15;;;12.10;87.40;;;;;;5083148;28;20036;-58
2021/04/29 09:58:57;;;;;;;20.17;10.05;;;12.10;88.10;;;;;;5084658;28;20044;-57
2021/04/29 10:01:27;;;;;;;18.70;9.82;;;12.00;86.80;;;;;;5080044;28;20051;-56
2021/04/29 10:03:55;;;;;;;19.70;10.52;;;12.20;86.90;;;;;;5084092;28;20044;-56
2021/04/29 10:06:22;;;;;;;14.80;10.45;;;12.30;87.40;;;;;;5081731;28;20060;-55
2021/04/29 10:08:50;;;;;;;16.35;10.65;;;12.30;86.80;;;;;;5084607;28;20034;-56
2021/04/29 10:11:21;;;;;;;21.65;11.13;;;12.40;86.70;;;;;;5081122;28;20044;-55
2021/04/29 10:13:54;;;;;;;17.30;10.73;;;12.70;82.50;;;;;;5083858;28;20070;-51
2021/04/29 10:16:22;;;;;;;27.40;14.50;;;13.10;85.10;;;;;;5083816;28;20039;-55
2021/04/29 10:18:49;;;;;;;24.25;13.20;;;13.40;83.10;;;;;;5085841;28;20068;-57
2021/04/29 10:21:17;;;;;;;19.40;12.45;;;13.50;81.10;;;;;;5086984;28;20541;-56
2021/04/29 10:23:47;;;;;;;19.98;12.38;;;13.40;80.00;;;;;;5078120;28;20080;-57
2021/04/29 10:26:27;;;;;;;19.55;12.15;;;13.30;80.30;;;;;;5085655;28;20499;-54
2021/04/29 10:29:04;;;;;;;17.67;11.18;;;13.00;82.90;;;;;;5084613;28;20422;-53
2021/04/29 10:31:32;;;;;;;27.65;13.85;;;13.20;84.80;;;;;;5084070;28;20048;-58
2021/04/29 10:33:58;;;;;;;19.92;11.75;;;13.50;84.00;;;;;;5080449;28;20135;-54
2021/04/29 10:36:53;;;;;;;22.95;11.65;;;13.70;84.30;;;;;;5085524;28;20040;-54
2021/04/29 10:39:24;;;;;;;16.00;10.07;;;13.50;81.00;;;;;;5069324;28;20044;-59
2021/04/29 10:42:04;;;;;;;10.95;6.78;;;13.60;80.30;;;;;;5085637;28;20044;-58
2021/04/29 10:44:39;;;;;;;8.85;5.57;;;13.70;75.60;;;;;;5084321;28;20605;-58
2021/04/29 10:47:05;;;;;;;15.40;7.83;;;13.60;69.60;;;;;;5085311;28;20058;-54
2021/04/29 10:49:31;;;;;;;;;;;13.50;68.30;;;;;;5085648;28;20396;-52
2021/04/29 10:52:00;;;;;;;13.02;7.20;;;13.50;69.90;;;;;;5085603;28;19973;-54
2021/04/29 10:54:26;;;;;;;10.27;5.35;;;13.40;70.00;;;;;;5085917;28;20036;-52
2021/04/29 10:56:59;;;;;;;;;;;13.30;72.50;;;;;;5084984;28;20040;-55
2021/04/29 10:59:55;;;;;;;18.25;11.48;;;13.10;75.30;;;;;;5082883;28;20415;-58
2021/04/29 11:02:34;;;;;;;17.43;11.67;;;12.90;77.30;;;;;;5079698;28;20047;-58
2021/04/29 11:05:01;;;;;;;17.08;11.10;;;13.10;81.10;;;;;;5084777;28;20403;-56
2021/04/29 11:07:29;;;;;;;22.33;13.85;;;13.50;83.60;;;;;;5084556;28;20959;-57
2021/04/29 11:10:07;;;;;;;18.33;11.48;;;13.60;83.00;;;;;;5084801;28;20044;-56
2021/04/29 11:12:47;;;;;;;16.40;10.63;;;13.40;81.30;;;;;;5085356;28;20131;-57
2021/04/29 11:15:37;;;;;;;18.10;11.05;;;13.60;83.10;;;;;;5076281;28;20029;-58
2021/04/29 11:18:10;;;;;;;12.95;9.15;;;13.60;77.90;;;;;;5069293;28;20028;-58
2021/04/29 11:20:49;;;;;;;18.85;10.48;;;13.70;80.70;;;;;;5082925;28;20048;-57
2021/04/29 11:23:17;;;;;;;18.27;10.05;;;14.00;80.30;;;;;;5079945;28;20127;-58
2021/04/29 11:25:48;;;;;;;17.42;10.18;;;13.80;79.10;;;;;;4899462;28;10000547;-57
2021/04/29 11:28:15;;;;;;;14.75;8.98;;;13.90;78.00;;;;;;4531416;28;10000699;-59
2021/04/29 11:30:42;;;;;;;14.10;9.93;;;13.90;77.50;;;;;;5055822;28;20025;-58
2021/04/29 11:33:12;;;;;;;17.25;8.70;;;14.00;74.80;;;;;;5047462;28;20092;-58
2021/04/29 11:35:39;;;;;;;16.52;10.05;;;14.00;76.00;;;;;;5044653;28;20112;-55
2021/04/29 11:38:08;;;;;;;17.58;10.45;;;13.80;74.80;;;;;;5045055;28;20080;-55
2021/04/29 11:40:35;;;;;;;18.05;9.88;;;13.40;76.10;;;;;;5063152;28;20051;-55
2021/04/29 11:43:04;;;;;;;9.93;6.15;;;13.10;76.90;;;;;;5059952;28;20880;-53
2021/04/29 11:45:35;;;;;;;8.80;4.07;;;12.20;82.50;;;;;;5054937;28;20513;-55
2021/04/29 11:48:12;;;;;;;4.97;3.33;;;11.30;91.50;;;;;;5048758;28;20378;-49
2021/04/29 11:50:46;;;;;;;4.88;3.33;;;10.70;93.80;;;;;;5056804;28;20485;-49
2021/04/29 11:53:16;;;;;;;5.68;3.35;;;10.30;94.50;;;;;;5057349;28;20044;-54
2021/04/29 11:55:45;;;;;;;4.35;3.08;;;10.30;95.30;;;;;;5056578;28;20041;-55
2021/04/29 11:58:13;;;;;;;4.43;2.95;;;10.40;92.70;;;;;;5044973;28;20033;-53
2021/04/29 12:00:52;;;;;;;8.15;4.93;;;10.50;94.30;;;;;;5045837;28;20040;-58
2021/04/29 12:03:19;;;;;;;10.20;6.25;;;10.50;95.50;;;;;;5061309;28;20044;-55
2021/04/29 12:05:49;;;;;;;12.32;7.50;;;10.60;96.30;;;;;;5054231;28;20213;-58
2021/04/29 12:08:16;;;;;;;25.90;8.82;;;10.80;96.20;;;;;;5054890;28;20032;-55
2021/04/29 12:10:48;;;;;;;14.45;9.10;;;11.10;95.60;;;;;;5052631;28;20051;-52
2021/04/29 12:13:15;;;;;;;13.40;8.52;;;11.30;94.20;;;;;;5059307;28;20097;-53
2021/04/29 12:15:42;;;;;;;16.65;9.75;;;11.40;95.00;;;;;;5057480;28;20115;-57
2021/04/29 12:18:11;;;;;;;;;;;11.60;94.50;;;;;;5052091;28;20131;-56
2021/04/29 12:20:37;;;;;;;13.23;7.30;;;11.90;95.10;;;;;;5057725;28;19920;-54
2021/04/29 12:23:03;;;;;;;;;;;12.20;95.60;;;;;;5050883;28;20045;-53
2021/04/29 12:25:29;;;;;;;15.13;6.65;;;12.30;95.00;;;;;;5052898;28;19971;-56
2021/04/29 12:27:54;;;;;;;;;;;12.40;95.70;;;;;;5058712;28;20477;-52
2021/04/29 12:30:26;;;;;;;12.07;6.40;;;12.50;94.80;;;;;;5061269;28;19924;-57
2021/04/29 12:32:52;;;;;;;11.68;6.50;;;12.30;93.10;;;;;;5052026;28;20067;-55
2021/04/29 12:35:35;;;;;;;;;;;12.00;92.10;;;;;;5052667;28;20610;-54
2021/04/29 12:38:01;;;;;;;9.48;6.00;;;12.10;92.00;;;;;;5058679;28;19928;-57
2021/04/29 12:40:28;;;;;;;;;;;12.00;92.70;;;;;;5056651;28;20051;-53
2021/04/29 12:43:15;;;;;;;8.57;5.75;;;12.10;93.80;;;;;;5056559;28;20307;-53
2021/04/29 12:45:53;;;;;;;8.43;5.38;;;12.20;92.90;;;;;;5054857;28;20037;-54
2021/04/29 12:48:33;;;;;;;18.83;8.63;;;12.20;91.50;;;;;;4851169;28;10000416;-57
2021/04/29 12:51:16;;;;;;;12.52;7.35;;;12.10;91.60;;;;;;4536826;28;10001229;-54
2021/04/29 12:54:24;;;;;;;14.57;8.77;;;11.90;90.90;;;;;;5066867;28;20078;-52
2021/04/29 12:56:57;;;;;;;13.00;8.18;;;11.80;90.90;;;;;;4995901;28;20514;-52
2021/04/29 12:59:23;;;;;;;13.32;9.13;;;11.70;90.70;;;;;;4985613;28;20047;-55
2021/04/29 13:02:07;;;;;;;13.70;8.68;;;11.60;90.20;;;;;;5027418;28;20041;-57
2021/04/29 13:04:34;;;;;;;15.10;8.38;;;11.40;89.70;;;;;;5067300;28;20090;-57
2021/04/29 13:07:03;;;;;;;13.25;8.52;;;11.20;90.50;;;;;;5067458;28;20045;-56
2021/04/29 13:09:37;;;;;;;14.38;8.38;;;11.00;91.60;;;;;;5067153;28;20036;-55